Time;durP1;ratioP1;P1;durP2;ratioP2;P2;SDS_P1;SDS_P2;PMS_P1;PMS_P2;Temp;Humidity;BMP_temperature;BMP_pressure;BME280_temperature;BME280_humidity;BME280_pressure;Samples;Min_cycle;Max_cycle;Signal;HPM_P1;HPM_P2
2022/07/12 00:01:37;;;;;;;0.40;0.40;;;19.70;97.90;;;;;;5109576;28;20631;-59
2022/07/12 00:04:04;;;;;;;0.47;0.40;;;19.70;97.90;;;;;;5099340;28;20203;-59
2022/07/12 00:06:32;;;;;;;0.60;0.60;;;19.70;98.00;;;;;;5111624;28;20188;-59
2022/07/12 00:08:59;;;;;;;0.40;0.40;;;19.70;98.00;;;;;;5110637;28;20607;-59
2022/07/12 00:11:26;;;;;;;0.50;0.50;;;19.60;98.10;;;;;;5110266;28;20279;-59
2022/07/12 00:13:53;;;;;;;0.60;0.60;;;19.60;98.10;;;;;;5112618;28;20672;-58
2022/07/12 00:16:21;;;;;;;0.40;0.40;;;19.60;98.20;;;;;;5110850;28;20260;-60
2022/07/12 00:18:48;;;;;;;0.50;0.50;;;19.60;98.20;;;;;;5110625;28;20204;-59
2022/07/12 00:21:16;;;;;;;0.60;0.60;;;19.60;98.20;;;;;;5111076;28;20211;-59
2022/07/12 00:23:44;;;;;;;0.40;0.40;;;19.60;98.30;;;;;;5111874;28;20636;-59
2022/07/12 00:26:11;;;;;;;0.40;0.40;;;19.60;98.40;;;;;;5110776;28;20184;-59
2022/07/12 00:28:38;;;;;;;0.50;0.50;;;19.50;98.40;;;;;;5111560;28;20331;-59
2022/07/12 00:31:06;;;;;;;0.50;0.50;;;19.50;98.40;;;;;;5111327;28;20249;-59
2022/07/12 00:33:33;;;;;;;0.40;0.40;;;19.50;98.50;;;;;;5110399;28;20200;-58
2022/07/12 00:36:00;;;;;;;0.40;0.40;;;19.50;98.50;;;;;;5110936;28;20287;-59
2022/07/12 00:38:27;;;;;;;0.40;0.40;;;19.50;98.60;;;;;;5111302;28;20223;-59
2022/07/12 00:40:55;;;;;;;0.40;0.40;;;19.50;98.60;;;;;;5110564;28;20223;-59
2022/07/12 00:43:22;;;;;;;0.38;0.38;;;19.50;98.70;;;;;;5110594;28;20196;-59
2022/07/12 00:45:49;;;;;;;0.50;0.50;;;19.50;98.80;;;;;;5110631;28;20188;-59
2022/07/12 00:48:18;;;;;;;0.40;0.40;;;19.50;98.80;;;;;;5109875;28;20195;-59
2022/07/12 00:50:47;;;;;;;0.45;0.45;;;19.50;98.90;;;;;;5110920;28;20283;-59
2022/07/12 00:53:16;;;;;;;0.50;0.50;;;19.50;98.90;;;;;;5108340;28;20212;-59
2022/07/12 00:55:43;;;;;;;0.60;0.60;;;19.50;99.00;;;;;;5109397;28;20227;-59
2022/07/12 00:58:11;;;;;;;0.40;0.40;;;19.50;99.10;;;;;;5100819;28;20322;-59
2022/07/12 01:00:38;;;;;;;0.60;0.40;;;19.50;99.10;;;;;;5105854;28;20208;-58
2022/07/12 01:03:06;;;;;;;0.52;0.40;;;19.50;99.20;;;;;;5109210;28;20223;-59
2022/07/12 01:05:33;;;;;;;0.30;0.30;;;19.50;99.30;;;;;;5098077;28;20589;-59
2022/07/12 01:08:00;;;;;;;0.57;0.57;;;19.50;99.30;;;;;;5110654;28;20196;-58
2022/07/12 01:10:28;;;;;;;0.40;0.40;;;19.50;99.40;;;;;;5110056;27;20192;-59
2022/07/12 01:12:58;;;;;;;1.38;0.50;;;19.50;99.40;;;;;;5108740;28;20686;-60
2022/07/12 01:15:29;;;;;;;0.70;0.65;;;19.50;99.50;;;;;;5110910;28;20219;-59
2022/07/12 01:17:57;;;;;;;0.40;0.40;;;19.40;99.50;;;;;;5109630;28;20188;-59
2022/07/12 01:20:24;;;;;;;0.43;0.43;;;19.40;99.60;;;;;;5110905;28;20200;-59
2022/07/12 01:22:54;;;;;;;0.68;0.60;;;19.40;99.70;;;;;;5109751;28;20231;-59
2022/07/12 01:25:21;;;;;;;0.52;0.52;;;19.40;99.80;;;;;;5107225;28;20184;-59
2022/07/12 01:27:49;;;;;;;0.75;0.50;;;19.40;99.80;;;;;;5104338;28;20229;-59
2022/07/12 01:30:16;;;;;;;0.52;0.52;;;19.40;99.90;;;;;;5110472;28;20298;-59
2022/07/12 01:32:43;;;;;;;0.40;0.40;;;19.40;99.90;;;;;;5105758;28;20304;-59
2022/07/12 01:35:11;;;;;;;0.55;0.55;;;19.50;99.90;;;;;;5109225;28;20230;-58
2022/07/12 01:37:40;;;;;;;0.50;0.50;;;19.40;99.90;;;;;;5110154;28;20712;-59
2022/07/12 01:40:10;;;;;;;0.50;0.50;;;19.40;99.90;;;;;;5108979;28;20204;-59
2022/07/12 01:42:38;;;;;;;0.50;0.50;;;19.50;99.90;;;;;;5109591;28;20220;-59
2022/07/12 01:45:06;;;;;;;0.50;0.50;;;19.40;99.90;;;;;;5109861;28;20272;-59
2022/07/12 01:47:35;;;;;;;0.50;0.50;;;19.40;99.90;;;;;;5100964;28;20211;-58
2022/07/12 01:50:02;;;;;;;0.47;0.47;;;19.50;99.90;;;;;;5102488;28;20227;-59
2022/07/12 01:52:29;;;;;;;0.50;0.50;;;19.40;99.90;;;;;;5109056;28;20282;-58
2022/07/12 01:54:58;;;;;;;0.50;0.50;;;19.40;99.90;;;;;;5109262;28;20207;-59
2022/07/12 01:57:27;;;;;;;0.65;0.43;;;19.40;99.90;;;;;;5109059;28;20236;-59
2022/07/12 01:59:55;;;;;;;0.50;0.50;;;19.40;99.90;;;;;;5102800;28;20282;-59
2022/07/12 02:02:25;;;;;;;1.00;0.43;;;19.30;99.90;;;;;;5106286;28;20295;-59
2022/07/12 02:04:53;;;;;;;0.50;0.50;;;19.40;99.90;;;;;;5107727;28;20199;-59
2022/07/12 02:07:21;;;;;;;0.40;0.40;;;19.30;99.90;;;;;;5109694;28;20583;-59
2022/07/12 02:09:47;;;;;;;0.43;0.43;;;19.30;99.90;;;;;;5094847;28;20503;-59
2022/07/12 02:12:14;;;;;;;0.50;0.50;;;19.40;99.90;;;;;;5098761;28;20224;-59
2022/07/12 02:14:43;;;;;;;0.88;0.60;;;19.30;99.90;;;;;;5105890;28;20192;-59
2022/07/12 02:17:10;;;;;;;0.50;0.50;;;19.30;99.90;;;;;;5109258;28;20321;-58
2022/07/12 02:19:37;;;;;;;0.30;0.30;;;19.30;99.90;;;;;;5107702;28;20746;-58
2022/07/12 02:22:04;;;;;;;0.50;0.50;;;19.30;99.90;;;;;;5098924;28;20310;-58
2022/07/12 02:24:31;;;;;;;0.32;0.32;;;19.30;99.90;;;;;;5106334;28;20556;-58
2022/07/12 02:26:59;;;;;;;0.40;0.40;;;19.30;99.90;;;;;;5108906;28;20290;-60
2022/07/12 02:29:26;;;;;;;0.57;0.57;;;19.30;99.90;;;;;;5109668;28;20552;-59
2022/07/12 02:31:54;;;;;;;0.82;0.50;;;19.20;99.90;;;;;;5108794;28;20207;-58
2022/07/12 02:34:21;;;;;;;0.50;0.50;;;19.20;99.90;;;;;;5108497;28;20207;-59
2022/07/12 02:36:48;;;;;;;0.50;0.50;;;19.30;99.90;;;;;;5103895;28;20204;-58
2022/07/12 02:39:15;;;;;;;0.40;0.40;;;19.20;99.90;;;;;;5103108;28;20539;-58
2022/07/12 02:41:42;;;;;;;0.60;0.60;;;19.20;99.90;;;;;;5107685;28;20196;-59
2022/07/12 02:44:09;;;;;;;0.40;0.40;;;19.30;99.90;;;;;;5109412;28;20273;-59
2022/07/12 02:46:36;;;;;;;0.50;0.50;;;19.30;99.90;;;;;;5109237;28;20191;-59
2022/07/12 02:49:05;;;;;;;0.40;0.40;;;19.20;99.90;;;;;;5107752;28;20566;-58
2022/07/12 02:51:32;;;;;;;0.60;0.60;;;19.20;99.90;;;;;;5100316;28;20563;-58
2022/07/12 02:53:59;;;;;;;0.50;0.50;;;19.20;99.90;;;;;;5108955;28;20628;-58
2022/07/12 02:56:26;;;;;;;0.45;0.45;;;19.30;99.90;;;;;;5107813;28;20216;-59
2022/07/12 02:58:53;;;;;;;0.50;0.50;;;19.30;99.90;;;;;;5108888;28;20284;-58
2022/07/12 03:01:20;;;;;;;0.40;0.40;;;19.20;99.90;;;;;;5103089;28;20645;-59
2022/07/12 03:03:47;;;;;;;0.55;0.55;;;19.20;99.90;;;;;;5109537;28;20196;-59
2022/07/12 03:06:16;;;;;;;0.50;0.50;;;19.20;99.90;;;;;;5113354;28;20199;-58
2022/07/12 03:08:43;;;;;;;0.40;0.40;;;19.20;99.90;;;;;;5112262;28;20200;-58
2022/07/12 03:11:10;;;;;;;0.30;0.30;;;19.20;99.90;;;;;;5104854;28;20195;-58
2022/07/12 03:13:38;;;;;;;0.40;0.40;;;19.20;99.90;;;;;;5112796;28;20200;-58
2022/07/12 03:16:07;;;;;;;0.38;0.38;;;19.20;99.90;;;;;;5112748;28;20332;-59
2022/07/12 03:18:34;;;;;;;0.40;0.40;;;19.20;99.90;;;;;;5111904;28;20581;-60
2022/07/12 03:21:01;;;;;;;0.40;0.40;;;19.20;99.90;;;;;;5111544;28;20199;-59
2022/07/12 03:23:29;;;;;;;0.50;0.50;;;19.20;99.90;;;;;;5112188;28;20274;-59
2022/07/12 03:25:57;;;;;;;0.38;0.38;;;19.20;99.90;;;;;;5108169;28;20180;-59
2022/07/12 03:28:25;;;;;;;0.50;0.50;;;19.20;99.90;;;;;;5103892;28;20283;-59
2022/07/12 03:30:52;;;;;;;0.43;0.43;;;19.20;99.90;;;;;;5112827;28;20302;-60
2022/07/12 03:33:19;;;;;;;0.40;0.40;;;19.20;99.90;;;;;;5111130;28;20192;-59
2022/07/12 03:35:46;;;;;;;0.40;0.40;;;19.20;99.90;;;;;;5111423;28;20291;-58
2022/07/12 03:38:14;;;;;;;0.40;0.40;;;19.20;99.90;;;;;;5112651;28;20226;-59
2022/07/12 03:40:42;;;;;;;0.40;0.40;;;19.20;99.90;;;;;;5111729;28;20206;-58
2022/07/12 03:43:09;;;;;;;0.60;0.40;;;19.20;99.90;;;;;;5112048;28;20244;-59
2022/07/12 03:45:36;;;;;;;0.40;0.40;;;19.30;99.90;;;;;;5112370;28;20282;-58
2022/07/12 03:48:03;;;;;;;0.45;0.45;;;19.30;99.90;;;;;;5111261;28;20196;-58
2022/07/12 03:50:30;;;;;;;0.30;0.30;;;19.30;99.90;;;;;;5112314;28;20275;-59
2022/07/12 03:52:57;;;;;;;0.50;0.50;;;19.30;99.90;;;;;;5100404;28;20294;-60
2022/07/12 03:55:24;;;;;;;0.50;0.50;;;19.30;99.90;;;;;;5111404;28;20261;-59
2022/07/12 03:57:52;;;;;;;0.47;0.47;;;19.30;99.90;;;;;;5110617;28;20310;-59
2022/07/12 04:00:19;;;;;;;0.40;0.40;;;19.30;99.90;;;;;;5096632;28;21369;-58
2022/07/12 04:02:47;;;;;;;0.30;0.30;;;19.30;99.90;;;;;;5099874;28;20203;-59
2022/07/12 04:05:14;;;;;;;0.50;0.50;;;19.30;99.90;;;;;;5110941;28;20294;-59
2022/07/12 04:07:41;;;;;;;0.52;0.52;;;19.40;99.90;;;;;;5109866;28;20198;-59
2022/07/12 04:10:09;;;;;;;0.40;0.40;;;19.40;99.90;;;;;;5110023;28;20374;-59
2022/07/12 04:12:37;;;;;;;0.30;0.30;;;19.40;99.90;;;;;;5109843;28;20231;-58
2022/07/12 04:15:06;;;;;;;0.43;0.40;;;19.40;99.90;;;;;;5102060;28;20184;-59
2022/07/12 04:17:34;;;;;;;0.40;0.40;;;19.40;99.90;;;;;;5110571;28;20199;-59
2022/07/12 04:20:01;;;;;;;2.55;0.40;;;19.50;99.90;;;;;;5109974;28;20224;-58
2022/07/12 04:22:28;;;;;;;0.65;0.50;;;19.50;99.90;;;;;;5110169;28;20549;-58
2022/07/12 04:24:56;;;;;;;1.75;0.75;;;19.50;99.90;;;;;;5106994;28;20283;-59
2022/07/12 04:27:23;;;;;;;0.50;0.50;;;19.50;99.90;;;;;;5109864;28;20611;-59
2022/07/12 04:29:50;;;;;;;0.82;0.57;;;19.50;99.90;;;;;;5110389;28;20206;-59
2022/07/12 04:32:18;;;;;;;0.50;0.50;;;19.60;99.90;;;;;;5107741;28;20210;-57
2022/07/12 04:34:46;;;;;;;0.70;0.52;;;19.60;99.90;;;;;;5109440;28;20256;-58
2022/07/12 04:37:13;;;;;;;0.30;0.30;;;19.60;99.90;;;;;;5108570;28;20216;-59
2022/07/12 04:39:40;;;;;;;0.50;0.50;;;19.60;99.90;;;;;;5109800;28;20286;-59
2022/07/12 04:42:07;;;;;;;0.60;0.60;;;19.70;99.90;;;;;;5109812;28;20749;-60
2022/07/12 04:44:34;;;;;;;1.42;0.50;;;19.70;99.90;;;;;;5110440;28;20648;-58
2022/07/12 04:47:01;;;;;;;0.68;0.57;;;19.70;99.90;;;;;;5096047;28;20237;-59
2022/07/12 04:49:32;;;;;;;0.55;0.55;;;19.70;99.90;;;;;;5109123;28;20257;-58
2022/07/12 04:51:59;;;;;;;0.75;0.60;;;19.70;99.90;;;;;;5091387;28;20196;-59
2022/07/12 04:54:26;;;;;;;0.60;0.60;;;19.80;99.90;;;;;;5103692;28;20219;-59
2022/07/12 04:56:53;;;;;;;0.50;0.50;;;19.80;99.90;;;;;;5066827;28;1126706;-59
2022/07/12 04:59:20;;;;;;;0.70;0.70;;;19.80;99.90;;;;;;5110966;28;20673;-59
2022/07/12 05:01:47;;;;;;;0.60;0.60;;;19.80;99.90;;;;;;5109278;28;20305;-59
2022/07/12 05:04:14;;;;;;;0.50;0.50;;;19.80;99.90;;;;;;5110279;28;20365;-59
2022/07/12 05:06:42;;;;;;;0.70;0.70;;;19.80;99.90;;;;;;5110717;28;20195;-59
2022/07/12 05:09:09;;;;;;;0.50;0.50;;;19.80;99.90;;;;;;5110833;28;20200;-60
2022/07/12 05:11:36;;;;;;;0.55;0.55;;;19.80;99.90;;;;;;5098843;28;20309;-58
2022/07/12 05:14:03;;;;;;;0.70;0.70;;;19.90;99.90;;;;;;5106706;28;20225;-58
2022/07/12 05:16:31;;;;;;;0.65;0.65;;;19.90;99.90;;;;;;5108629;28;20243;-59
2022/07/12 05:19:00;;;;;;;2.13;0.75;;;19.90;99.90;;;;;;5109546;28;20196;-58
2022/07/12 05:21:28;;;;;;;0.70;0.70;;;19.90;99.90;;;;;;5110229;28;20567;-59
2022/07/12 05:23:56;;;;;;;2.85;0.90;;;19.90;99.90;;;;;;5109922;28;20198;-59
2022/07/12 05:26:23;;;;;;;0.60;0.60;;;19.90;99.90;;;;;;5104576;28;20635;-59
2022/07/12 05:28:50;;;;;;;0.60;0.60;;;19.90;99.90;;;;;;5105308;28;20279;-59
2022/07/12 05:31:17;;;;;;;1.90;0.60;;;19.90;99.90;;;;;;5110215;28;20282;-59
2022/07/12 05:33:44;;;;;;;0.57;0.57;;;19.90;99.90;;;;;;5094397;28;20292;-59
2022/07/12 05:36:11;;;;;;;0.85;0.70;;;20.00;99.90;;;;;;5106574;28;20265;-59
2022/07/12 05:38:38;;;;;;;0.50;0.40;;;20.00;99.90;;;;;;5110239;28;20663;-59
2022/07/12 05:41:06;;;;;;;0.60;0.60;;;20.00;99.90;;;;;;5109682;28;20246;-57
2022/07/12 05:43:34;;;;;;;0.50;0.50;;;20.00;99.90;;;;;;5104886;28;20291;-59
2022/07/12 05:46:01;;;;;;;1.38;0.60;;;20.00;99.90;;;;;;5110339;28;20218;-57
2022/07/12 05:48:28;;;;;;;0.60;0.60;;;20.00;99.90;;;;;;5108537;28;20218;-59
2022/07/12 05:50:55;;;;;;;0.52;0.52;;;20.10;99.90;;;;;;5107550;28;20210;-59
2022/07/12 05:53:41;;;;;;;0.50;0.50;;;20.10;99.90;;;;;;5107398;28;20292;-60
2022/07/12 05:56:09;;;;;;;0.77;0.75;;;20.10;99.90;;;;;;5109002;28;20470;-59
2022/07/12 05:58:36;;;;;;;0.60;0.60;;;20.20;99.90;;;;;;5109402;28;20576;-58
2022/07/12 06:01:03;;;;;;;1.05;0.75;;;20.20;99.90;;;;;;5104841;28;20341;-58
2022/07/12 06:03:31;;;;;;;0.70;0.70;;;20.30;99.90;;;;;;5096387;28;20555;-58
2022/07/12 06:05:58;;;;;;;0.70;0.70;;;20.30;99.90;;;;;;5106215;28;20199;-59
2022/07/12 06:08:25;;;;;;;0.82;0.82;;;20.30;99.90;;;;;;5106543;28;20187;-58
2022/07/12 06:10:52;;;;;;;0.95;0.75;;;20.30;99.90;;;;;;5107544;28;20199;-59
2022/07/12 06:13:20;;;;;;;0.50;0.50;;;20.40;99.90;;;;;;5107726;28;20223;-59
2022/07/12 06:15:47;;;;;;;1.27;0.70;;;20.40;99.90;;;;;;5108702;28;20212;-59
2022/07/12 06:18:14;;;;;;;0.95;0.80;;;20.40;99.90;;;;;;5106309;28;20311;-59
2022/07/12 06:20:41;;;;;;;1.20;0.82;;;20.40;99.90;;;;;;5101174;28;20208;-59
2022/07/12 06:23:08;;;;;;;1.23;0.88;;;20.40;99.90;;;;;;5096985;28;20674;-59
2022/07/12 06:25:36;;;;;;;2.38;0.95;;;20.40;99.90;;;;;;5106864;28;20246;-59
2022/07/12 06:28:05;;;;;;;2.28;0.70;;;20.50;99.90;;;;;;5093258;28;20189;-59
2022/07/12 06:30:33;;;;;;;0.80;0.80;;;20.50;99.90;;;;;;5106978;28;20203;-59
2022/07/12 06:33:00;;;;;;;1.08;0.98;;;20.50;99.90;;;;;;5107259;28;20286;-59
2022/07/12 06:35:28;;;;;;;1.08;0.98;;;20.50;99.90;;;;;;5108344;28;20204;-59
2022/07/12 06:37:55;;;;;;;1.92;0.80;;;20.50;99.90;;;;;;5108372;28;20689;-63
2022/07/12 06:40:22;;;;;;;0.93;0.90;;;20.60;99.90;;;;;;5106878;28;20253;-59
2022/07/12 06:42:50;;;;;;;0.82;0.80;;;20.60;99.90;;;;;;5104759;28;20295;-61
2022/07/12 06:45:17;;;;;;;3.72;0.90;;;20.60;99.90;;;;;;5107894;28;20553;-59
2022/07/12 06:47:46;;;;;;;2.33;0.80;;;20.60;99.90;;;;;;5108070;28;20213;-59
2022/07/12 06:50:13;;;;;;;0.65;0.65;;;20.70;99.90;;;;;;5102040;28;20188;-59
2022/07/12 06:52:40;;;;;;;1.33;0.77;;;20.70;99.90;;;;;;5101403;28;20209;-59
2022/07/12 06:55:08;;;;;;;0.65;0.60;;;20.70;99.90;;;;;;5106362;28;20734;-59
2022/07/12 06:57:37;;;;;;;1.27;0.85;;;20.70;99.90;;;;;;5107619;28;20227;-58
2022/07/12 07:00:05;;;;;;;1.75;0.63;;;20.80;99.90;;;;;;5107829;28;20199;-59
2022/07/12 07:02:32;;;;;;;0.80;0.80;;;20.80;99.90;;;;;;5106559;28;20196;-59
2022/07/12 07:05:01;;;;;;;0.60;0.60;;;20.90;99.90;;;;;;5093921;28;20206;-59
2022/07/12 07:07:28;;;;;;;1.17;0.60;;;20.90;99.90;;;;;;5103143;28;20195;-60
2022/07/12 07:09:55;;;;;;;0.95;0.65;;;21.00;99.90;;;;;;5107936;28;20199;-58
2022/07/12 07:12:22;;;;;;;0.60;0.60;;;21.00;99.50;;;;;;5092970;28;20663;-59
2022/07/12 07:14:49;;;;;;;1.38;0.70;;;21.10;99.10;;;;;;5108703;28;20199;-58
2022/07/12 07:17:17;;;;;;;1.08;0.77;;;21.10;98.80;;;;;;5107696;28;20306;-59
2022/07/12 07:19:44;;;;;;;0.65;0.65;;;21.10;98.60;;;;;;5104503;28;20199;-59
2022/07/12 07:22:13;;;;;;;1.55;0.80;;;21.20;98.70;;;;;;5107439;28;20288;-59
2022/07/12 07:24:41;;;;;;;0.70;0.70;;;21.20;98.60;;;;;;5104665;28;20194;-58
2022/07/12 07:27:08;;;;;;;0.75;0.75;;;21.30;98.60;;;;;;5103748;28;20740;-59
2022/07/12 07:32:20;;;;;;;0.85;0.70;;;21.40;98.60;;;;;;5107679;28;20199;-59
2022/07/12 07:34:47;;;;;;;0.70;0.60;;;21.50;98.60;;;;;;5107062;28;20648;-59
2022/07/12 07:37:16;;;;;;;0.57;0.57;;;21.50;98.30;;;;;;5107840;28;20211;-59
2022/07/12 07:39:43;;;;;;;0.65;0.65;;;21.60;98.00;;;;;;5107723;28;20271;-59
2022/07/12 07:42:10;;;;;;;1.85;0.70;;;21.60;97.70;;;;;;5106188;28;20227;-59
2022/07/12 07:44:37;;;;;;;0.75;0.75;;;21.70;97.70;;;;;;5107512;28;20287;-59
2022/07/12 07:47:04;;;;;;;1.10;0.88;;;21.70;97.50;;;;;;5107569;28;20677;-59
2022/07/12 07:49:31;;;;;;;0.80;0.80;;;21.80;97.20;;;;;;5108304;28;20204;-59
2022/07/12 07:51:58;;;;;;;1.27;0.80;;;21.80;96.90;;;;;;5111061;28;20294;-60
2022/07/12 07:54:27;;;;;;;0.60;0.60;;;21.80;96.60;;;;;;5111400;28;20624;-60
2022/07/12 07:56:53;;;;;;;2.70;0.70;;;21.90;96.50;;;;;;5109961;28;20699;-59
2022/07/12 07:59:20;;;;;;;0.50;0.50;;;21.90;96.30;;;;;;5111422;28;20207;-60
2022/07/12 08:01:52;;;;;;;0.60;0.60;;;22.00;96.30;;;;;;5110232;28;20208;-58
2022/07/12 08:04:20;;;;;;;0.63;0.63;;;22.00;96.10;;;;;;5103049;28;20189;-60
2022/07/12 08:06:48;;;;;;;0.50;0.50;;;22.00;95.70;;;;;;5110427;28;20200;-59
2022/07/12 08:09:16;;;;;;;0.68;0.68;;;22.10;95.30;;;;;;5103965;28;20280;-60
2022/07/12 08:11:45;;;;;;;0.70;0.70;;;22.10;95.20;;;;;;5098657;28;20302;-59
2022/07/12 08:14:12;;;;;;;0.63;0.63;;;22.20;94.90;;;;;;5095082;28;20231;-59
2022/07/12 08:16:39;;;;;;;0.73;0.73;;;22.20;94.60;;;;;;5111043;28;20196;-59
2022/07/12 08:19:07;;;;;;;0.63;0.63;;;22.30;94.50;;;;;;5109415;28;20617;-59
2022/07/12 08:21:34;;;;;;;0.80;0.80;;;22.30;94.10;;;;;;5101448;28;20192;-60
2022/07/12 08:24:01;;;;;;;2.03;0.60;;;22.40;93.60;;;;;;5108446;28;20196;-60
2022/07/12 08:26:28;;;;;;;1.95;0.60;;;22.40;93.30;;;;;;5109653;28;20203;-60
2022/07/12 08:28:56;;;;;;;1.90;0.77;;;22.50;93.40;;;;;;5110472;28;20619;-59
2022/07/12 08:31:24;;;;;;;0.75;0.75;;;22.50;93.40;;;;;;5111292;27;20235;-60
2022/07/12 08:33:52;;;;;;;1.77;0.88;;;22.50;93.40;;;;;;5109758;28;20311;-60
2022/07/12 08:36:19;;;;;;;1.75;0.70;;;22.60;93.30;;;;;;5110551;28;20669;-59
2022/07/12 08:38:46;;;;;;;1.98;0.60;;;22.70;93.10;;;;;;5110846;28;20245;-59
2022/07/12 08:41:14;;;;;;;2.83;0.95;;;22.70;92.90;;;;;;5108443;28;20212;-60
2022/07/12 08:43:42;;;;;;;2.95;0.77;;;22.70;92.70;;;;;;5109876;28;20196;-60
2022/07/12 08:46:12;;;;;;;0.85;0.77;;;22.70;92.50;;;;;;5110433;28;20191;-60
2022/07/12 08:48:40;;;;;;;2.15;0.60;;;22.70;92.60;;;;;;5109086;28;20188;-61
2022/07/12 08:51:08;;;;;;;0.45;0.45;;;22.80;92.90;;;;;;5109260;28;20295;-60
2022/07/12 08:53:36;;;;;;;7.95;0.70;;;22.90;92.90;;;;;;5098231;28;20219;-61
2022/07/12 08:56:04;;;;;;;0.85;0.70;;;23.00;92.90;;;;;;5094019;28;20666;-60
2022/07/12 08:58:31;;;;;;;0.80;0.80;;;23.10;92.50;;;;;;5104610;28;20239;-60
2022/07/12 09:00:58;;;;;;;0.98;0.80;;;23.10;92.10;;;;;;5107238;28;20316;-59
2022/07/12 09:03:27;;;;;;;1.13;0.65;;;23.20;92.00;;;;;;5092471;28;20216;-60
2022/07/12 09:05:55;;;;;;;2.17;0.80;;;23.30;91.90;;;;;;5096359;28;20192;-60
2022/07/12 09:08:28;;;;;;;1.33;0.50;;;23.30;91.70;;;;;;5109958;28;20192;-60
2022/07/12 09:10:57;;;;;;;1.08;0.73;;;23.40;91.50;;;;;;5109395;28;20596;-61
2022/07/12 09:13:46;;;;;;;1.85;0.80;;;23.50;91.10;;;;;;5109333;28;20212;-60
2022/07/12 09:16:14;;;;;;;1.90;0.80;;;23.50;90.90;;;;;;5109738;28;20647;-61
2022/07/12 09:18:43;;;;;;;1.25;0.73;;;23.60;90.20;;;;;;5091708;28;20226;-59
2022/07/12 09:21:10;;;;;;;0.50;0.50;;;23.60;90.10;;;;;;5100525;28;20229;-59
2022/07/12 09:23:37;;;;;;;0.95;0.88;;;23.70;89.70;;;;;;5099085;28;20197;-60
2022/07/12 09:26:09;;;;;;;1.05;0.73;;;23.80;89.20;;;;;;5107255;28;20565;-59
2022/07/12 09:28:37;;;;;;;0.63;0.60;;;23.80;89.00;;;;;;5108713;28;20191;-59
2022/07/12 09:31:04;;;;;;;0.50;0.50;;;23.80;88.00;;;;;;5108256;28;20195;-61
2022/07/12 09:36:17;;;;;;;1.80;0.88;;;23.90;87.20;;;;;;5105371;28;20184;-60
2022/07/12 09:38:52;;;;;;;1.73;0.65;;;24.00;85.90;;;;;;5104038;28;20298;-59
2022/07/12 09:41:21;;;;;;;0.80;0.80;;;24.00;85.20;;;;;;5107170;27;20223;-60
2022/07/12 09:43:49;;;;;;;1.30;0.57;;;24.00;85.10;;;;;;5108528;28;20586;-59
2022/07/12 09:46:16;;;;;;;1.05;0.90;;;24.00;85.70;;;;;;5108926;28;20241;-60
2022/07/12 09:48:45;;;;;;;1.88;0.90;;;24.00;85.90;;;;;;5105128;28;20203;-60
2022/07/12 09:51:16;;;;;;;1.55;0.70;;;24.00;85.80;;;;;;5107835;28;20195;-60
2022/07/12 09:53:45;;;;;;;1.67;0.85;;;24.00;85.90;;;;;;5108943;28;20237;-59
2022/07/12 09:56:13;;;;;;;1.88;0.85;;;24.00;85.80;;;;;;5108075;28;20436;-59
2022/07/12 09:58:44;;;;;;;2.38;0.60;;;24.10;84.70;;;;;;5108270;28;20228;-59
2022/07/12 10:01:12;;;;;;;1.77;0.70;;;24.20;84.30;;;;;;5107485;28;20623;-61
2022/07/12 10:03:41;;;;;;;7.38;0.80;;;24.20;83.70;;;;;;5106095;28;20256;-59
2022/07/12 10:06:09;;;;;;;0.88;0.77;;;24.30;83.70;;;;;;5097219;28;20255;-59
2022/07/12 10:08:37;;;;;;;0.75;0.60;;;24.30;82.90;;;;;;5108798;28;20195;-59
2022/07/12 10:11:05;;;;;;;1.95;0.90;;;24.40;83.00;;;;;;5094678;28;20219;-61
2022/07/12 10:13:33;;;;;;;0.63;0.63;;;24.50;82.50;;;;;;5107663;28;20210;-60
2022/07/12 10:16:02;;;;;;;1.20;0.70;;;24.50;82.50;;;;;;5087539;28;20265;-59
2022/07/12 10:18:30;;;;;;;4.70;0.52;;;24.50;81.60;;;;;;5103680;28;20417;-61
2022/07/12 10:20:57;;;;;;;1.45;0.80;;;24.50;81.40;;;;;;5108416;28;20275;-61
2022/07/12 10:23:35;;;;;;;0.75;0.73;;;24.60;81.20;;;;;;5103498;28;21483;-60
2022/07/12 10:26:39;;;;;;;0.55;0.55;;;24.60;80.70;;;;;;5105787;28;20223;-60
2022/07/12 10:29:09;;;;;;;0.40;0.40;;;24.70;81.60;;;;;;5106806;28;20179;-60
2022/07/12 10:31:37;;;;;;;2.63;0.60;;;24.70;79.90;;;;;;5101440;28;20662;-60
2022/07/12 10:34:20;;;;;;;1.75;0.50;;;24.70;79.80;;;;;;5096713;28;20626;-61
2022/07/12 10:37:20;;;;;;;0.90;0.70;;;24.80;79.10;;;;;;5107219;28;20196;-59
2022/07/12 10:40:12;;;;;;;1.15;0.70;;;24.80;78.30;;;;;;5089555;28;20239;-61
2022/07/12 10:42:42;;;;;;;4.85;0.60;;;24.90;78.10;;;;;;5100381;28;20427;-61
2022/07/12 10:45:16;;;;;;;0.68;0.68;;;24.90;78.30;;;;;;5108138;28;20219;-61
2022/07/12 10:47:56;;;;;;;1.85;0.60;;;24.90;77.90;;;;;;5104356;28;20225;-61
2022/07/12 10:50:55;;;;;;;3.28;0.80;;;24.90;77.90;;;;;;5103700;28;20279;-61
2022/07/12 10:53:23;;;;;;;0.80;0.80;;;24.90;77.10;;;;;;5106800;28;20191;-61
2022/07/12 10:56:14;;;;;;;1.48;0.70;;;24.90;76.40;;;;;;5107857;28;20579;-61
2022/07/12 10:58:44;;;;;;;0.73;0.73;;;24.80;74.80;;;;;;5100904;28;20310;-60
2022/07/12 11:01:13;;;;;;;4.03;0.80;;;24.80;75.10;;;;;;5105913;28;20278;-60
2022/07/12 11:03:42;;;;;;;1.58;0.60;;;24.80;74.90;;;;;;5102144;28;20210;-61
2022/07/12 11:06:11;;;;;;;2.65;0.82;;;24.80;75.20;;;;;;5105428;28;20293;-60
2022/07/12 11:08:52;;;;;;;0.75;0.73;;;24.90;75.70;;;;;;5108971;28;20203;-60
2022/07/12 11:11:21;;;;;;;0.63;0.63;;;24.90;74.60;;;;;;5107688;28;20215;-60
2022/07/12 11:13:49;;;;;;;5.50;0.60;;;25.00;74.30;;;;;;5108210;28;20206;-59
2022/07/12 11:16:17;;;;;;;2.80;1.10;;;25.00;73.80;;;;;;5108119;28;20222;-60
2022/07/12 11:18:45;;;;;;;0.82;0.80;;;25.10;74.10;;;;;;5088537;28;20225;-60
2022/07/12 11:21:12;;;;;;;4.22;0.90;;;25.10;73.10;;;;;;5107960;28;20212;-60
2022/07/12 11:23:41;;;;;;;1.55;1.02;;;25.10;72.70;;;;;;5087769;28;20239;-60
2022/07/12 11:26:10;;;;;;;1.02;0.82;;;25.10;71.70;;;;;;5110745;28;20685;-60
2022/07/12 11:28:39;;;;;;;0.73;0.70;;;25.20;72.10;;;;;;5112386;28;20660;-60
2022/07/12 11:31:08;;;;;;;1.80;1.20;;;25.20;72.10;;;;;;5105579;28;20192;-60
2022/07/12 11:33:37;;;;;;;1.65;0.60;;;25.20;71.20;;;;;;5109751;28;20196;-61
2022/07/12 11:36:06;;;;;;;3.53;1.10;;;25.30;71.00;;;;;;5112568;28;20232;-60
2022/07/12 11:38:34;;;;;;;0.88;0.80;;;25.30;71.00;;;;;;5112295;28;20269;-61
2022/07/12 11:41:03;;;;;;;3.83;1.98;;;25.40;71.40;;;;;;5111293;28;20291;-61
2022/07/12 11:43:30;;;;;;;6.97;3.03;;;25.40;70.80;;;;;;5101119;28;20569;-61
2022/07/12 11:45:58;;;;;;;2.10;1.23;;;25.40;70.60;;;;;;5108776;28;20361;-61
2022/07/12 11:48:26;;;;;;;2.60;0.80;;;25.40;69.60;;;;;;5107899;28;20282;-60
2022/07/12 11:50:55;;;;;;;6.53;1.20;;;25.40;70.10;;;;;;5097100;28;20196;-60
2022/07/12 11:53:22;;;;;;;0.88;0.75;;;25.40;71.00;;;;;;5111380;28;20196;-60
2022/07/12 11:55:51;;;;;;;0.75;0.70;;;25.40;70.00;;;;;;5110499;28;20324;-60
2022/07/12 11:58:19;;;;;;;0.85;0.80;;;25.50;69.80;;;;;;5111225;28;20228;-61
2022/07/12 12:00:47;;;;;;;1.95;0.90;;;25.50;69.40;;;;;;5111246;28;20200;-61
2022/07/12 12:03:16;;;;;;;0.70;0.70;;;25.50;69.10;;;;;;5110114;28;20725;-61
2022/07/12 12:05:46;;;;;;;1.00;0.80;;;25.50;67.80;;;;;;5109370;28;20211;-61
2022/07/12 12:08:14;;;;;;;4.53;0.88;;;25.60;68.10;;;;;;5111119;28;20300;-61
2022/07/12 12:10:42;;;;;;;6.32;0.70;;;25.60;68.50;;;;;;5094559;28;20193;-61
2022/07/12 12:13:15;;;;;;;1.55;0.65;;;25.60;67.90;;;;;;5102568;28;20196;-61
2022/07/12 12:15:50;;;;;;;1.15;0.82;;;25.60;67.30;;;;;;5109862;28;20196;-61
2022/07/12 12:18:17;;;;;;;0.60;0.55;;;25.60;67.90;;;;;;5109767;28;20187;-61
2022/07/12 12:20:45;;;;;;;0.90;0.73;;;25.70;67.90;;;;;;5110388;28;20195;-60
2022/07/12 12:23:17;;;;;;;2.42;1.00;;;25.70;66.30;;;;;;5110277;28;20689;-60
2022/07/12 12:25:45;;;;;;;1.25;0.80;;;25.80;66.30;;;;;;5102832;28;20191;-61
2022/07/12 12:28:13;;;;;;;0.70;0.70;;;25.80;66.40;;;;;;5110171;28;20261;-60
2022/07/12 12:30:50;;;;;;;0.75;0.75;;;25.80;66.20;;;;;;5111160;28;20215;-60
2022/07/12 12:33:35;;;;;;;1.00;0.65;;;25.90;66.90;;;;;;5110023;28;20225;-60
2022/07/12 12:36:17;;;;;;;1.00;0.75;;;25.90;66.70;;;;;;5097527;28;20682;-60
2022/07/12 12:38:45;;;;;;;5.25;1.00;;;26.00;67.30;;;;;;5111324;28;20286;-60
2022/07/12 12:41:13;;;;;;;1.02;0.70;;;26.00;66.60;;;;;;5109679;28;20295;-60
2022/07/12 12:43:41;;;;;;;2.63;0.98;;;26.10;66.50;;;;;;5108736;28;20184;-61
2022/07/12 12:46:08;;;;;;;2.35;0.77;;;26.10;65.60;;;;;;5110351;28;20191;-61
2022/07/12 12:48:36;;;;;;;0.80;0.70;;;26.10;64.80;;;;;;5109297;28;20324;-59
2022/07/12 12:51:05;;;;;;;0.75;0.57;;;26.10;64.30;;;;;;5110447;28;20253;-59
2022/07/12 12:53:34;;;;;;;1.95;0.52;;;26.00;63.70;;;;;;5110469;28;20235;-60
2022/07/12 12:56:02;;;;;;;0.60;0.60;;;26.00;64.10;;;;;;5105645;28;20235;-60
2022/07/12 12:58:29;;;;;;;1.60;0.70;;;25.90;63.70;;;;;;5108061;28;20231;-60
2022/07/12 13:00:57;;;;;;;0.70;0.70;;;26.00;64.10;;;;;;5110917;28;20191;-61